Flight Track Log - Related Links

Times and Time Zones

All times are in EDT time to prevent confusion due to time zone crossing. See the N844JD flight status page for this flight to view local times or setup timezone preferences in your user account.


Time Position Orientation Groundspeed Altitude Reporting Facility
EDT Latitude Longitude Course Direction KTS MPH feet Rate Location/Type
Sun 04:06:52 PM 47.5011 -122.2781 151° Southeast 173 199 1,700  Level Seattle Center
Sun 04:07:20 PM 47.4736 -122.2433 140° Southeast 227 261 3,300 2,656 Climbing Seattle Center
Sun 04:07:53 PM 47.4669 -122.2058 105° East 242 278 4,400 3,246 Climbing Seattle Center
Sun 04:08:21 PM 47.4992 -122.1506 49° Northeast 299 344 6,600 4,400 Climbing Seattle Center
Sun 04:08:53 PM 47.5425 -122.1456 North 293 337 8,800 3,871 Climbing Seattle Center
Sun 04:09:54 PM 47.5883 -122.2044 319° Northwest 263 303 12,600 3,246 Climbing Seattle Center
Sun 04:10:55 PM 47.5983 -122.3139 278° West 258 297 15,400 2,508 Climbing Seattle Center
Sun 04:11:56 PM 47.6161 -122.4119 285° West 267 307 17,700 2,951 Climbing Seattle Center
Sun 04:12:57 PM 47.6425 -122.5175 290° West 261 300 21,400 3,049 Climbing Seattle Center
Sun 04:13:58 PM 47.6736 -122.6111 296° West 254 292 23,900 2,430 Climbing Seattle Center
Sun 04:14:58 PM 47.7019 -122.7081 294° West 258 297 26,300 1,934 Climbing Seattle Center
Sun 04:15:59 PM 47.7317 -122.8111 293° West 271 312 27,800 1,475 Climbing Seattle Center
Sun 04:17:00 PM 47.7925 -122.8911 319° Northwest 300 345 29,300 1,475 Climbing Seattle Center
Sun 04:18:01 PM 47.8628 -122.9597 327° Northwest 303 349 30,800 1,475 Climbing Seattle Center
Sun 04:19:02 PM 47.9325 -123.0317 325° Northwest 307 353 32,300 1,475 Climbing Seattle Center
Sun 04:20:03 PM 48.0022 -123.1006 327° Northwest 305 351 33,800 1,339 Climbing Seattle Center
Sun 04:21:03 PM 48.0689 -123.1692 325° Northwest 297 342 35,000 1,091 Climbing Seattle Center
Sun 04:22:04 PM 48.1417 -123.2419 326° Northwest 296 341 36,000 955 Climbing Seattle Center
Sun 04:22:31 PM 48.1500 -123.2667 297° West 300 345 36,400 690 Climbing Vancouver Center
Sun 04:23:31 PM 48.2333 -123.3500 326° Northwest 300 345 37,000 568 Climbing Vancouver Center
Sun 04:24:06 PM 48.2814 -123.3822 336° Northwest 304 350 37,300 333 Climbing Seattle Center
Sun 04:26:31 PM 48.4500 -123.5667 324° Northwest 330 380 38,000 205 Climbing Vancouver Center
Sun 04:27:31 PM 48.5333 -123.6500 326° Northwest 350 403 38,000  Level Vancouver Center
Sun 04:28:31 PM 48.6167 -123.7500 322° Northwest 350 403 38,000  Level Vancouver Center
Sun 04:30:00 PM 48.7128 -123.9301 309° West  Level FlightAware Approximate
Sun 04:30:31 PM 48.7667 -123.9000 309° West 350 403 38,000  Level Vancouver Center
Sun 04:31:31 PM 48.8500 -124.0000 322° Northwest 360 414 38,000  Level Vancouver Center
Sun 04:32:31 PM 48.9333 -124.0833 327° Northwest 350 403 38,000  Level Vancouver Center
Sun 04:33:31 PM 49.0167 -124.1500 332° Northwest 350 403 38,000  Level Vancouver Center
Sun 04:34:31 PM 49.0833 -124.2500 316° Northwest 350 403 38,000  Level Vancouver Center
Sun 04:35:31 PM 49.1833 -124.3333 331° Northwest 350 403 38,000  Level Vancouver Center
Sun 04:36:31 PM 49.2500 -124.4167 321° Northwest 350 403 38,000  Level Vancouver Center
Sun 04:37:31 PM 49.3333 -124.5167 322° Northwest 350 403 38,000  Level Vancouver Center
Sun 04:38:31 PM 49.4167 -124.6000 327° Northwest 350 403 38,000  Level Vancouver Center
Sun 04:39:31 PM 49.4833 -124.6667 327° Northwest 350 403 38,000  Level Vancouver Center
Sun 04:40:31 PM 49.5667 -124.7500 327° Northwest 350 403 38,000  Level Vancouver Center
Sun 04:41:31 PM 49.6500 -124.8500 322° Northwest 350 403 38,000  Level Vancouver Center
Sun 04:42:31 PM 49.7333 -124.9333 327° Northwest 350 403 38,000  Level Vancouver Center
Sun 04:43:31 PM 49.8167 -125.0167 327° Northwest 350 403 38,000  Level Vancouver Center
Sun 04:44:31 PM 49.9000 -125.1167 322° Northwest 350 403 38,000  Level Vancouver Center
Sun 04:45:31 PM 49.9667 -125.2000 321° Northwest 350 403 38,000  Level Vancouver Center
Sun 04:46:31 PM 50.0500 -125.2833 327° Northwest 350 403 38,000  Level Vancouver Center
Sun 04:47:31 PM 50.1333 -125.3667 327° Northwest 350 403 38,000  Level Vancouver Center
Sun 04:48:31 PM 50.2000 -125.4500 321° Northwest 350 403 38,000  Level Vancouver Center
Sun 04:49:31 PM 50.2833 -125.5500 323° Northwest 350 403 38,000  Level Vancouver Center
Sun 04:50:31 PM 50.3667 -125.6333 327° Northwest 350 403 38,000  Level Vancouver Center
Sun 04:51:31 PM 50.4333 -125.7333 316° Northwest 350 403 38,000  Level Vancouver Center
Sun 04:52:31 PM 50.5167 -125.8167 328° Northwest 350 403 38,000  Level Vancouver Center
Sun 04:53:31 PM 50.6000 -125.9000 328° Northwest 350 403 38,000  Level Vancouver Center
Sun 04:54:31 PM 50.6667 -125.9833 322° Northwest 350 403 38,000  Level Vancouver Center
Sun 04:55:31 PM 50.7500 -126.1000 318° Northwest 350 403 38,000  Level Vancouver Center
Sun 04:56:30 PM 50.8333 -126.1833 328° Northwest 350 403 38,000  Level Vancouver Center
Sun 04:57:30 PM 50.9167 -126.2667 328° Northwest 350 403 38,000  Level Vancouver Center
Sun 04:58:30 PM 51.0000 -126.3667 323° Northwest 350 403 38,000  Level Vancouver Center
Sun 04:59:30 PM 51.0833 -126.4500 328° Northwest 350 403 38,000  Level Vancouver Center
Sun 05:00:30 PM 51.1667 -126.5667 319° Northwest 360 414 38,000  Level Vancouver Center
Sun 05:01:30 PM 51.2167 -126.6500 314° West 350 403 38,000  Level Vancouver Center
Sun 05:02:30 PM 51.3000 -126.7333 328° Northwest 360 414 38,000  Level Vancouver Center
Sun 05:03:30 PM 51.3833 -126.8500 319° Northwest 360 414 38,000  Level Vancouver Center
Sun 05:04:30 PM 51.4667 -126.9333 328° Northwest 350 403 38,000  Level Vancouver Center
Sun 05:05:30 PM 51.5500 -127.0167 328° Northwest 350 403 38,000  Level Vancouver Center
Sun 05:06:30 PM 51.6333 -127.1000 328° Northwest 350 403 38,000  Level Vancouver Center
Sun 05:07:30 PM 51.7167 -127.2167 319° Northwest 350 403 38,000  Level Vancouver Center
Sun 05:08:30 PM 51.7667 -127.3000 314° West 350 403 38,000  Level Vancouver Center
Sun 05:09:30 PM 51.8500 -127.4000 323° Northwest 350 403 38,000  Level Vancouver Center
Sun 05:10:30 PM 51.9333 -127.5167 319° Northwest 350 403 38,000  Level Vancouver Center
Sun 05:11:30 PM 52.0167 -127.6000 328° Northwest 350 403 38,000  Level Vancouver Center
Sun 05:12:30 PM 52.0833 -127.6833 322° Northwest 350 403 38,000  Level Vancouver Center
Sun 05:13:30 PM 52.1667 -127.8000 319° Northwest 350 403 38,000  Level Vancouver Center
Sun 05:14:30 PM 52.2333 -127.8833 323° Northwest 350 403 38,000  Level Vancouver Center
Sun 05:15:30 PM 52.3167 -127.9833 324° Northwest 350 403 38,000  Level Vancouver Center
Sun 05:16:30 PM 52.4000 -128.0667 329° Northwest 350 403 38,000  Level Vancouver Center
Sun 05:17:30 PM 52.4667 -128.1500 323° Northwest 350 403 38,000  Level Vancouver Center
Sun 05:18:30 PM 52.5500 -128.2667 320° Northwest 350 403 38,000  Level Vancouver Center
Sun 05:19:30 PM 52.6167 -128.3667 318° Northwest 350 403 38,000  Level Vancouver Center
Sun 05:20:30 PM 52.7000 -128.4833 320° Northwest 350 403 38,000  Level Vancouver Center
Sun 05:21:30 PM 52.7833 -128.5667 329° Northwest 350 403 38,000  Level Vancouver Center
Sun 05:22:30 PM 52.8667 -128.6667 324° Northwest 360 414 38,000  Level Vancouver Center
Sun 05:23:30 PM 52.9333 -128.7500 323° Northwest 350 403 38,000  Level Vancouver Center
Sun 05:24:30 PM 53.0000 -128.8833 310° West 360 414 38,000  Level Vancouver Center
Sun 05:25:30 PM 53.0833 -128.9667 329° Northwest 360 414 38,000  Level Vancouver Center
Sun 05:26:30 PM 53.1667 -129.0833 320° Northwest 360 414 38,000  Level Vancouver Center
Sun 05:27:30 PM 53.2500 -129.1833 324° Northwest 360 414 38,000  Level Vancouver Center
Sun 05:28:30 PM 53.3167 -129.2833 318° Northwest 350 403 38,000  Level Vancouver Center
Sun 05:29:30 PM 53.4000 -129.4000 320° Northwest 350 403 38,000  Level Vancouver Center
Sun 05:30:30 PM 53.4833 -129.5000 324° Northwest 360 414 38,000  Level Vancouver Center
Sun 05:31:30 PM 53.5500 -129.6167 314° West 360 414 38,000  Level Vancouver Center
Sun 05:32:30 PM 53.6333 -129.7167 325° Northwest 360 414 38,000  Level Vancouver Center
Sun 05:33:30 PM 53.7167 -129.8000 329° Northwest 360 414 38,000  Level Vancouver Center
Sun 05:34:30 PM 53.8000 -129.9333 317° Northwest 360 414 38,000  Level Vancouver Center
Sun 05:35:30 PM 53.8667 -130.0333 319° Northwest 370 426 38,000  Level Vancouver Center
Sun 05:36:30 PM 53.9500 -130.1500 321° Northwest 360 414 38,000  Level Vancouver Center
Sun 05:37:30 PM 54.0333 -130.2500 325° Northwest 360 414 38,000  Level Vancouver Center
Sun 05:38:30 PM 54.1000 -130.3500 319° Northwest 370 426 38,000  Level Vancouver Center
Sun 05:39:30 PM 54.1667 -130.4667 314° West 360 414 38,000  Level Vancouver Center
Sun 05:40:30 PM 54.2667 -130.5667 330° Northwest 360 414 38,000  Level Vancouver Center
Sun 05:41:30 PM 54.3167 -130.7000 303° West 370 426 38,000  Level Vancouver Center
Sun 05:42:30 PM 54.4167 -130.8000 330° Northwest 360 414 38,000  Level Vancouver Center
Sun 05:43:30 PM 54.4833 -130.9000 319° Northwest 370 426 38,000  Level Vancouver Center
Sun 05:44:30 PM 54.5667 -131.0333 317° Northwest 360 414 38,000  Level Vancouver Center
Sun 05:45:23 PM 54.6333 -131.0833 337° Northwest 370 426 38,000  Level Anchorage Center
Sun 05:46:23 PM 54.7167 -131.2000 321° Northwest 370 426 38,000  Level Anchorage Center
Sun 05:47:23 PM 54.7833 -131.3167 315° West 370 426 38,000  Level Anchorage Center
Sun 05:48:24 PM 54.8667 -131.4167 325° Northwest 360 414 38,000  Level Anchorage Center
Sun 05:49:24 PM 54.9500 -131.5500 317° Northwest 370 426 38,000  Level Anchorage Center
Sun 05:50:24 PM 55.0167 -131.6500 319° Northwest 370 426 38,000  Level Anchorage Center
Sun 05:51:30 PM 55.1000 -131.8167 311° West 360 414 38,000  Level Vancouver Center
Sun 05:52:30 PM 55.1833 -131.9500 318° Northwest 370 426 38,000  Level Vancouver Center
Sun 05:53:24 PM 55.2500 -132.0000 337° Northwest 370 426 38,000  Level Anchorage Center
Sun 05:54:24 PM 55.3333 -132.1167 321° Northwest 370 426 38,000  Level Anchorage Center
Sun 05:55:24 PM 55.4000 -132.2333 315° West 370 426 38,000  Level Anchorage Center
Sun 05:56:24 PM 55.4667 -132.3333 320° Northwest 360 414 38,000  Level Anchorage Center
Sun 05:57:24 PM 55.5500 -132.4500 322° Northwest 380 437 38,000  Level Anchorage Center
Sun 05:58:25 PM 55.6167 -132.5833 312° West 370 426 38,000  Level Anchorage Center
Sun 05:59:25 PM 55.7000 -132.7000 322° Northwest 380 437 38,000  Level Anchorage Center
Sun 06:00:25 PM 55.7833 -132.8333 318° Northwest 380 437 38,000  Level Anchorage Center
Sun 06:01:25 PM 55.8500 -132.9500 316° Northwest 370 426 38,000  Level Anchorage Center
Sun 06:02:25 PM 55.9333 -133.0667 322° Northwest 380 437 38,000  Level Anchorage Center
Sun 06:03:25 PM 56.0167 -133.2000 318° Northwest 370 426 38,000  Level Anchorage Center
Sun 06:04:26 PM 56.1000 -133.3167 322° Northwest 380 437 38,000  Level Anchorage Center
Sun 06:05:26 PM 56.1667 -133.4500 312° West 380 437 38,000  Level Anchorage Center
Sun 06:06:26 PM 56.2500 -133.5833 318° Northwest 380 437 38,000  Level Anchorage Center
Sun 06:07:25 PM 56.3333 -133.7000 322° Northwest 380 437 38,000  Level Anchorage Center
Sun 06:08:26 PM 56.4000 -133.8333 312° West 380 437 38,000  Level Anchorage Center
Sun 06:09:26 PM 56.4833 -133.9667 319° Northwest 370 426 38,000  Level Anchorage Center
Sun 06:10:26 PM 56.5667 -134.0833 322° Northwest 380 437 38,000  Level Anchorage Center
Sun 06:11:26 PM 56.6500 -134.2500 312° West 390 449 38,000  Level Anchorage Center
Sun 06:12:26 PM 56.7333 -134.3833 319° Northwest 380 437 38,000  Level Anchorage Center
Sun 06:13:27 PM 56.8167 -134.5000 323° Northwest 380 437 38,000  Level Anchorage Center
Sun 06:14:26 PM 56.8833 -134.6333 312° West 390 449 38,000  Level Anchorage Center
Sun 06:15:26 PM 56.9667 -134.7667 319° Northwest 380 437 38,000 347 Level Anchorage Center
Sun 06:16:27 PM 57.0333 -134.9000 313° West 380 437 38,700 645 Climbing Anchorage Center
Sun 06:17:27 PM 57.1167 -135.0333 319° Northwest 380 437 39,300 550 Climbing Anchorage Center
Sun 06:18:27 PM 57.2000 -135.1667 319° Northwest 370 426 39,800 500 Climbing Anchorage Center
Sun 06:19:27 PM 57.2667 -135.3000 313° West 380 437 40,300 600 Climbing Anchorage Center
Sun 06:20:27 PM 57.3500 -135.4333 319° Northwest 370 426 41,000 350 Climbing Anchorage Center
Sun 06:21:27 PM 57.4167 -135.5667 313° West 370 426 41,000  Level Anchorage Center
Sun 06:22:27 PM 57.5000 -135.7000 319° Northwest 380 437 41,000  Level Anchorage Center
Sun 06:23:27 PM 57.5667 -135.8333 313° West 380 437 41,000  Level Anchorage Center
Sun 06:24:27 PM 57.6500 -135.9833 316° Northwest 380 437 41,000 -198 Level Anchorage Center
Sun 06:25:28 PM 57.7167 -136.1167 313° West 380 437 40,600 -496 Descending Anchorage Center
Sun 06:26:28 PM 57.8000 -136.2500 320° Northwest 390 449 40,000 -303 Descending Anchorage Center
Sun 06:27:27 PM 57.8833 -136.4000 316° Northwest 390 449 40,000  Level Anchorage Center
Sun 06:28:28 PM 57.9500 -136.5333 313° West 380 437 40,000  Level Anchorage Center
Sun 06:29:28 PM 58.0333 -136.6833 316° Northwest 390 449 40,000  Level Anchorage Center
Sun 06:30:28 PM 58.1000 -136.8333 310° West 380 437 40,000  Level Anchorage Center
Sun 06:31:28 PM 58.1667 -136.9667 313° West 380 437 40,000  Level Anchorage Center
Sun 06:32:28 PM 58.2500 -137.1000 320° Northwest 380 437 40,000  Level Anchorage Center
Sun 06:33:28 PM 58.3167 -137.2333 314° West 380 437 40,000  Level Anchorage Center
Sun 06:34:28 PM 58.4000 -137.3833 317° Northwest 380 437 40,000  Level Anchorage Center
Sun 06:35:29 PM 58.4667 -137.5333 310° West 380 437 40,000  Level Anchorage Center
Sun 06:36:29 PM 58.5500 -137.6667 320° Northwest 390 449 40,000  Level Anchorage Center
Sun 06:37:29 PM 58.6167 -137.8167 311° West 390 449 40,000  Level Anchorage Center
Sun 06:38:29 PM 58.7000 -137.9667 317° Northwest 380 437 40,000  Level Anchorage Center
Sun 06:39:29 PM 58.7667 -138.1167 311° West 390 449 40,000  Level Anchorage Center
Sun 06:40:29 PM 58.8333 -138.2667 311° West 390 449 40,000  Level Anchorage Center
Sun 06:41:29 PM 58.9167 -138.4167 317° Northwest 380 437 40,000  Level Anchorage Center
Sun 06:42:29 PM 58.9833 -138.5667 311° West 390 449 40,000  Level Anchorage Center
Sun 06:43:29 PM 59.0667 -138.7167 317° Northwest 390 449 40,000  Level Anchorage Center
Sun 06:44:30 PM 59.1333 -138.8667 311° West 390 449 40,000  Level Anchorage Center
Sun 06:45:30 PM 59.2167 -139.0167 317° Northwest 390 449 40,000  Level Anchorage Center
Sun 06:46:30 PM 59.2833 -139.1667 311° West 390 449 40,000  Level Anchorage Center
Sun 06:47:30 PM 59.3500 -139.3333 308° West 390 449 40,000  Level Anchorage Center
Sun 06:48:30 PM 59.4333 -139.4833 318° Northwest 390 449 40,000  Level Anchorage Center
Sun 06:49:30 PM 59.5167 -139.6500 315° West 400 460 40,000  Level Anchorage Center
Sun 06:50:30 PM 59.6167 -139.7667 329° Northwest 410 472 40,000  Level Anchorage Center
Sun 06:51:30 PM 59.7167 -139.8833 330° Northwest 410 472 40,000  Level Anchorage Center
Sun 06:52:30 PM 59.8000 -139.9833 329° Northwest 400 460 40,000  Level Anchorage Center
Sun 06:53:30 PM 59.9000 -140.1000 330° Northwest 400 460 40,000  Level Anchorage Center
Sun 06:54:31 PM 60.0000 -140.2167 330° Northwest 400 460 40,000  Level Anchorage Center
Sun 06:55:31 PM 60.1000 -140.3333 330° Northwest 400 460 40,000  Level Anchorage Center
Sun 06:56:31 PM 60.2000 -140.4500 330° Northwest 400 460 40,000  Level Anchorage Center
Sun 06:57:31 PM 60.2833 -140.5667 325° Northwest 410 472 40,000  Level Anchorage Center
Sun 06:58:31 PM 60.3833 -140.6667 334° Northwest 400 460 40,000  Level Anchorage Center
Sun 06:59:31 PM 60.4833 -140.7833 330° Northwest 400 460 40,000  Level Anchorage Center
Sun 07:00:31 PM 60.5833 -140.9167 327° Northwest 400 460 40,000  Level Anchorage Center
Sun 07:01:31 PM 60.6833 -141.0333 330° Northwest 410 472 40,000  Level Anchorage Center
Sun 07:02:31 PM 60.7667 -141.1500 326° Northwest 410 472 40,000  Level Anchorage Center
Sun 07:03:32 PM 60.8667 -141.2667 330° Northwest 410 472 40,000  Level Anchorage Center
Sun 07:04:32 PM 60.9667 -141.4000 327° Northwest 410 472 40,000  Level Anchorage Center
Sun 07:05:32 PM 61.0667 -141.5167 331° Northwest 410 472 40,000  Level Anchorage Center
Sun 07:06:32 PM 61.1667 -141.6500 327° Northwest 410 472 40,000  Level Anchorage Center
Sun 07:07:32 PM 61.2667 -141.7667 331° Northwest 410 472 40,000  Level Anchorage Center
Sun 07:08:32 PM 61.3500 -141.9000 323° Northwest 410 472 40,000  Level Anchorage Center
Sun 07:09:32 PM 61.4500 -142.0167 331° Northwest 410 472 40,000  Level Anchorage Center
Sun 07:10:32 PM 61.5500 -142.1500 328° Northwest 410 472 40,000  Level Anchorage Center
Sun 07:11:32 PM 61.6500 -142.2667 331° Northwest 410 472 40,000  Level Anchorage Center
Sun 07:12:33 PM 61.7333 -142.4000 323° Northwest 410 472 40,000  Level Anchorage Center
Sun 07:13:32 PM 61.8333 -142.5333 328° Northwest 410 472 40,000  Level Anchorage Center
Sun 07:14:32 PM 61.9333 -142.6500 331° Northwest 410 472 40,000  Level Anchorage Center
Sun 07:15:32 PM 62.0333 -142.7833 328° Northwest 400 460 40,000  Level Anchorage Center
Sun 07:16:33 PM 62.1333 -142.9167 328° Northwest 410 472 40,000  Level Anchorage Center
Sun 07:17:33 PM 62.2167 -143.0500 323° Northwest 410 472 40,000  Level Anchorage Center
Sun 07:18:33 PM 62.3167 -143.1833 328° Northwest 410 472 40,000  Level Anchorage Center
Sun 07:19:33 PM 62.4167 -143.3167 328° Northwest 400 460 40,000  Level Anchorage Center
Sun 07:20:33 PM 62.5000 -143.4667 320° Northwest 430 495 40,000  Level Anchorage Center
Sun 07:21:33 PM 62.6000 -143.6000 328° Northwest 410 472 40,000  Level Anchorage Center
Sun 07:22:33 PM 62.6833 -143.7667 317° Northwest 390 449 40,000  Level Anchorage Center
Sun 07:23:33 PM 62.7667 -143.9167 321° Northwest 410 472 40,000  Level Anchorage Center
Sun 07:24:33 PM 62.8500 -144.0833 318° Northwest 400 460 40,000  Level Anchorage Center
Sun 07:25:34 PM 62.9333 -144.2667 315° West 400 460 40,000  Level Anchorage Center
Sun 07:26:34 PM 63.0000 -144.4667 306° West 410 472 40,000  Level Anchorage Center
Sun 07:27:34 PM 63.0667 -144.6500 309° West 410 472 40,000 -150 Level Anchorage Center
Sun 07:28:34 PM 63.1333 -144.8167 312° West 400 460 39,700 -500 Descending Anchorage Center
Sun 07:29:34 PM 63.2167 -145.0333 311° West 400 460 39,000 -650 Descending Anchorage Center
Sun 07:30:34 PM 63.3000 -145.2333 313° West 420 483 38,400 -700 Descending Anchorage Center
Sun 07:31:34 PM 63.3667 -145.4167 309° West 410 472 37,600 -843 Descending Anchorage Center
Sun 07:32:35 PM 63.4500 -145.5833 318° Northwest 410 472 36,700 -992 Descending Anchorage Center
Sun 07:33:35 PM 63.5500 -145.8000 316° Northwest 420 483 35,600 -1,050 Descending Anchorage Center
Sun 07:34:35 PM 63.6333 -145.9833 316° Northwest 430 495 34,600 -1,150 Descending Anchorage Center
Sun 07:35:35 PM 63.7167 -146.1667 316° Northwest 430 495 33,300 -1,250 Descending Anchorage Center
Sun 07:36:35 PM 63.8167 -146.3000 330° Northwest 430 495 32,100 -1,600 Descending Anchorage Center
Sun 07:37:35 PM 63.9167 -146.4500 327° Northwest 430 495 30,100 -2,150 Descending Anchorage Center
Sun 07:38:35 PM 64.0333 -146.6167 328° Northwest 430 495 27,800 -2,300 Descending Anchorage Center
Sun 07:40:00 PM 64.1501 -146.7932 327° Northwest  Level FlightAware Approximate
Sun 07:47:00 PM 64.7223 -147.6945 320° Northwest  Level FlightAware Approximate
Sun 07:48:00 PM 64.7974 -147.8448 320° Northwest  Level FlightAware Approximate
Sun 07:49:00 PM 64.8000 -147.8500 320° Northwest  Level FlightAware Approximate
Sun 07:50:00 PM 64.8151 -147.8564 320° Northwest  Level Estimated
Sun 07:51:00 PM 64.8151 -147.8564 320° Northwest  Level Estimated
Sun 07:52:00 PM 64.8151 -147.8564 320° Northwest  Level Estimated
Sun 07:53:00 PM 64.8151 -147.8564 320° Northwest  Level Estimated
Sun 07:54:00 PM 64.8151 -147.8564 320° Northwest  Level Estimated
Sun 07:55:00 PM 64.8151 -147.8564 320° Northwest  Level Estimated
Sun 07:56:00 PM 64.8151 -147.8564 320° Northwest  Level Estimated
Sun 07:57:00 PM 64.8151 -147.8564 320° Northwest  Level Estimated
Sun 07:58:00 PM 64.8151 -147.8564 320° Northwest  Level Estimated
Sun 07:59:00 PM 64.8151 -147.8564 320° Northwest  Level Estimated
Sun 08:00:00 PM 64.8151 -147.8564 320° Northwest  Level Estimated
Sun 08:01:00 PM 64.8151 -147.8564 320° Northwest  Level Estimated

Login

Don't have an account? Register now (free) for customized features, flight alerts, and more!